Time;durP1;ratioP1;P1;durP2;ratioP2;P2;SDS_P1;SDS_P2;PMS_P1;PMS_P2;Temp;Humidity;BMP_temperature;BMP_pressure;BME280_temperature;BME280_humidity;BME280_pressure;Samples;Min_cycle;Max_cycle;Signal;HPM_P1;HPM_P2
2022/09/23 00:01:01;;;;;;;2.97;2.53;;;13.70;96.90;;;;;;5026456;28;20213;-82
2022/09/23 00:03:32;;;;;;;3.17;2.47;;;13.60;96.90;;;;;;5028590;28;20196;-82
2022/09/23 00:06:00;;;;;;;2.40;2.07;;;13.60;96.80;;;;;;5026461;28;20288;-83
2022/09/23 00:08:27;;;;;;;2.50;2.30;;;13.70;96.90;;;;;;5036474;28;20202;-82
2022/09/23 00:10:56;;;;;;;3.17;2.40;;;13.60;96.80;;;;;;5034484;28;20269;-81
2022/09/23 00:13:23;;;;;;;2.00;1.80;;;13.60;96.70;;;;;;5041233;28;20209;-83
2022/09/23 00:15:51;;;;;;;1.93;1.80;;;13.60;96.60;;;;;;5035369;28;20204;-82
2022/09/23 00:18:20;;;;;;;2.20;2.00;;;13.60;96.60;;;;;;5041109;28;20220;-82
2022/09/23 00:20:50;;;;;;;2.53;2.03;;;13.60;96.50;;;;;;5042083;28;20306;-84
2022/09/23 00:23:17;;;;;;;2.37;2.17;;;13.60;96.50;;;;;;5032206;28;20279;-83
2022/09/23 00:25:44;;;;;;;2.70;1.97;;;13.60;96.50;;;;;;5036521;28;20208;-83
2022/09/23 00:28:12;;;;;;;2.57;1.87;;;13.50;96.50;;;;;;5038269;28;20251;-83
2022/09/23 00:30:40;;;;;;;2.73;1.87;;;13.50;96.60;;;;;;5034632;28;20641;-82
2022/09/23 00:33:07;;;;;;;2.07;1.87;;;13.50;96.60;;;;;;5038243;28;20201;-83
2022/09/23 00:35:34;;;;;;;1.80;1.70;;;13.50;96.60;;;;;;5032195;28;20727;-83
2022/09/23 00:38:10;;;;;;;1.77;1.67;;;13.50;96.60;;;;;;5033698;28;20205;-83
2022/09/23 00:40:42;;;;;;;2.10;1.90;;;13.50;96.60;;;;;;5038254;28;20367;-83
2022/09/23 00:43:11;;;;;;;3.60;2.03;;;13.60;96.70;;;;;;5029977;28;20198;-83
2022/09/23 00:45:39;;;;;;;2.60;1.80;;;13.60;96.60;;;;;;5028159;28;20229;-83
2022/09/23 00:48:09;;;;;;;2.80;2.10;;;13.50;96.60;;;;;;5032518;28;20226;-82
2022/09/23 00:50:39;;;;;;;2.97;1.77;;;13.50;96.60;;;;;;5031139;28;20627;-83
2022/09/23 00:53:11;;;;;;;2.17;1.97;;;13.50;96.60;;;;;;5028262;28;20303;-82
2022/09/23 00:55:42;;;;;;;4.40;1.80;;;13.50;96.60;;;;;;5035119;28;20201;-83
2022/09/23 00:58:13;;;;;;;2.07;1.87;;;13.50;96.60;;;;;;5031607;28;20243;-83
2022/09/23 01:00:40;;;;;;;1.50;1.40;;;13.50;96.80;;;;;;5030297;28;20232;-82
2022/09/23 01:03:08;;;;;;;1.90;1.80;;;13.50;96.50;;;;;;5034671;28;20227;-82
2022/09/23 01:05:37;;;;;;;1.87;1.63;;;13.50;96.50;;;;;;5036482;28;20206;-82
2022/09/23 01:08:04;;;;;;;1.50;1.37;;;13.40;96.40;;;;;;5029147;28;20196;-82
2022/09/23 01:10:42;;;;;;;2.37;1.67;;;13.50;96.50;;;;;;5041190;28;20609;-82
2022/09/23 01:13:16;;;;;;;1.60;1.50;;;13.40;96.50;;;;;;5035618;28;20215;-83
2022/09/23 01:15:49;;;;;;;1.97;1.50;;;13.40;96.50;;;;;;5034522;28;20608;-83
2022/09/23 01:18:31;;;;;;;1.60;1.50;;;13.40;96.50;;;;;;5031910;28;20555;-83
2022/09/23 01:21:13;;;;;;;1.90;1.40;;;13.40;96.50;;;;;;5033442;28;20242;-82
2022/09/23 01:24:18;;;;;;;1.77;1.60;;;13.40;96.60;;;;;;5033498;28;20189;-83
2022/09/23 01:27:07;;;;;;;1.70;1.57;;;13.40;96.60;;;;;;5034600;28;20554;-83
2022/09/23 01:30:09;;;;;;;1.97;1.47;;;13.40;96.60;;;;;;5035088;28;20189;-82
2022/09/23 01:32:58;;;;;;;1.37;1.27;;;13.40;96.50;;;;;;5027652;28;20198;-81
2022/09/23 01:35:30;;;;;;;1.60;1.50;;;13.40;96.50;;;;;;5042380;28;20195;-83
2022/09/23 01:38:08;;;;;;;1.13;1.13;;;13.40;96.40;;;;;;5030447;28;20194;-82
2022/09/23 01:40:45;;;;;;;1.37;1.27;;;13.40;96.30;;;;;;5030099;28;20209;-82
2022/09/23 01:43:18;;;;;;;1.73;1.40;;;13.40;96.30;;;;;;5044133;28;20253;-82
2022/09/23 01:45:47;;;;;;;1.53;1.43;;;13.40;96.20;;;;;;5034477;28;20238;-82
2022/09/23 01:48:21;;;;;;;1.60;1.43;;;13.40;96.20;;;;;;5030994;28;20271;-82
2022/09/23 01:50:58;;;;;;;1.60;1.43;;;13.40;96.20;;;;;;5027777;28;20648;-82
2022/09/23 01:53:32;;;;;;;1.90;1.70;;;13.40;96.10;;;;;;5032650;28;20216;-82
2022/09/23 01:56:05;;;;;;;1.60;1.27;;;13.40;96.10;;;;;;5030335;28;20195;-82
2022/09/23 01:58:40;;;;;;;1.53;1.43;;;13.40;96.20;;;;;;5034558;28;20351;-82
2022/09/23 02:01:13;;;;;;;1.60;1.50;;;13.40;96.10;;;;;;5032565;28;20671;-82
2022/09/23 02:03:48;;;;;;;2.73;1.60;;;13.30;96.10;;;;;;5047372;28;20196;-82
2022/09/23 02:06:21;;;;;;;1.70;1.60;;;13.30;96.10;;;;;;5031331;28;20190;-82
2022/09/23 02:08:55;;;;;;;2.13;1.47;;;13.30;96.00;;;;;;5034262;28;20199;-83
2022/09/23 02:11:23;;;;;;;2.00;1.77;;;13.30;96.00;;;;;;5036769;28;20714;-82
2022/09/23 02:13:54;;;;;;;2.67;1.60;;;13.30;96.00;;;;;;5040311;28;20354;-82
2022/09/23 02:16:28;;;;;;;3.30;1.50;;;13.30;96.00;;;;;;5029881;28;20669;-83
2022/09/23 02:19:01;;;;;;;1.60;1.50;;;13.30;96.00;;;;;;5030347;28;20207;-83
2022/09/23 02:21:33;;;;;;;3.70;1.63;;;13.20;95.90;;;;;;5028942;28;20618;-83
2022/09/23 02:24:08;;;;;;;2.00;1.80;;;13.10;95.90;;;;;;5028836;28;20387;-82
2022/09/23 02:26:44;;;;;;;1.40;1.30;;;13.10;96.00;;;;;;5034934;28;20213;-82
2022/09/23 02:29:19;;;;;;;2.63;1.73;;;13.10;95.90;;;;;;5032777;28;20198;-82
2022/09/23 02:31:55;;;;;;;1.50;1.40;;;13.10;95.90;;;;;;5039512;28;20565;-82
2022/09/23 02:34:35;;;;;;;1.70;1.50;;;13.10;95.90;;;;;;5029646;28;20711;-82
2022/09/23 02:37:13;;;;;;;1.60;1.50;;;13.10;95.90;;;;;;5049419;28;20218;-82
2022/09/23 02:39:55;;;;;;;1.57;1.47;;;13.10;96.00;;;;;;5025711;28;20672;-82
2022/09/23 02:42:25;;;;;;;1.73;1.30;;;13.10;96.00;;;;;;5032849;28;20205;-82
2022/09/23 02:44:52;;;;;;;2.13;1.27;;;13.20;96.00;;;;;;5025602;28;20300;-83
2022/09/23 02:47:24;;;;;;;1.70;1.50;;;13.10;96.00;;;;;;5039740;28;20193;-82
2022/09/23 02:49:55;;;;;;;1.53;1.43;;;13.00;95.90;;;;;;5028981;28;20616;-82
2022/09/23 02:52:23;;;;;;;2.03;1.87;;;13.00;95.90;;;;;;5027285;28;20230;-81
2022/09/23 02:54:51;;;;;;;1.83;1.53;;;13.00;96.00;;;;;;5041236;28;20250;-82
2022/09/23 02:57:19;;;;;;;1.40;1.30;;;13.00;96.00;;;;;;5036202;28;20566;-82
2022/09/23 02:59:47;;;;;;;1.63;1.30;;;13.00;96.10;;;;;;5034432;28;20216;-82
2022/09/23 03:02:39;;;;;;;1.40;1.30;;;13.00;96.00;;;;;;5037456;28;20206;-81
2022/09/23 03:05:17;;;;;;;1.53;1.40;;;13.00;95.90;;;;;;5038130;28;20208;-82
2022/09/23 03:07:55;;;;;;;2.00;1.40;;;13.00;95.90;;;;;;5026869;28;20203;-82
2022/09/23 03:10:25;;;;;;;1.60;1.50;;;13.00;95.90;;;;;;5031051;28;20282;-82
2022/09/23 03:13:04;;;;;;;1.33;1.23;;;13.00;95.90;;;;;;5029019;28;20232;-82
2022/09/23 03:15:36;;;;;;;2.33;1.60;;;13.00;95.80;;;;;;5030200;28;20260;-82
2022/09/23 03:18:13;;;;;;;1.20;1.10;;;13.00;95.80;;;;;;5029692;28;20261;-82
2022/09/23 03:20:48;;;;;;;1.67;1.30;;;13.00;95.80;;;;;;5028162;28;20231;-82
2022/09/23 03:23:19;;;;;;;1.67;1.47;;;12.90;95.80;;;;;;5036363;28;20234;-82
2022/09/23 03:25:49;;;;;;;1.57;1.17;;;12.90;95.80;;;;;;5030436;28;20642;-82
2022/09/23 03:28:20;;;;;;;1.50;1.20;;;12.90;95.90;;;;;;5026166;28;20203;-81
2022/09/23 03:30:49;;;;;;;1.63;1.53;;;12.90;95.90;;;;;;5032477;28;20704;-81
2022/09/23 03:33:18;;;;;;;1.40;1.30;;;12.90;95.90;;;;;;5029289;28;20199;-82
2022/09/23 03:38:41;;;;;;;1.30;1.20;;;12.90;95.90;;;;;;5027271;28;20195;-82
2022/09/23 03:41:10;;;;;;;1.03;1.03;;;12.80;96.00;;;;;;5029281;28;20204;-82
2022/09/23 03:43:38;;;;;;;1.70;1.57;;;12.80;96.10;;;;;;5031174;28;20198;-82
2022/09/23 03:46:05;;;;;;;1.20;1.10;;;12.80;96.20;;;;;;5032550;28;20603;-81
2022/09/23 03:48:33;;;;;;;1.07;1.03;;;12.80;96.30;;;;;;5029400;28;20191;-82
2022/09/23 03:51:20;;;;;;;1.23;1.20;;;12.80;96.20;;;;;;5034905;28;20219;-81
2022/09/23 03:53:56;;;;;;;0.93;0.93;;;12.90;96.30;;;;;;5024120;28;20200;-82
2022/09/23 03:56:29;;;;;;;1.30;1.20;;;12.90;96.30;;;;;;5032180;28;20277;-81
2022/09/23 03:58:56;;;;;;;1.20;1.00;;;12.90;96.40;;;;;;5032856;28;20721;-82
2022/09/23 04:01:23;;;;;;;1.37;1.10;;;12.90;96.50;;;;;;5030204;28;20204;-81
2022/09/23 04:03:51;;;;;;;1.13;1.10;;;12.90;96.40;;;;;;5035050;28;20557;-81
2022/09/23 04:06:20;;;;;;;2.13;1.20;;;12.90;96.20;;;;;;5030372;28;20199;-82
2022/09/23 04:08:47;;;;;;;1.00;1.00;;;12.90;96.30;;;;;;5032634;28;20257;-82
2022/09/23 04:11:13;;;;;;;1.77;1.17;;;12.90;96.30;;;;;;5028388;28;20783;-82
2022/09/23 04:13:41;;;;;;;1.33;0.90;;;12.90;96.30;;;;;;5033184;28;20199;-83
2022/09/23 04:16:07;;;;;;;1.07;1.00;;;12.90;96.40;;;;;;5031676;28;20295;-84
2022/09/23 04:18:35;;;;;;;1.30;1.20;;;12.90;96.40;;;;;;5026022;28;20254;-81
2022/09/23 04:21:04;;;;;;;1.73;0.97;;;12.90;96.50;;;;;;5033351;28;20223;-81
2022/09/23 04:23:33;;;;;;;0.90;0.90;;;12.90;96.90;;;;;;5039308;28;20207;-82
2022/09/23 04:26:01;;;;;;;1.20;1.10;;;12.90;96.70;;;;;;5029724;28;20234;-82
2022/09/23 04:28:28;;;;;;;0.80;0.80;;;12.80;96.80;;;;;;5027688;28;20310;-82
2022/09/23 04:30:56;;;;;;;1.00;1.00;;;13.00;97.00;;;;;;5028828;28;20660;-82
2022/09/23 04:33:25;;;;;;;0.80;0.80;;;12.90;96.90;;;;;;5027282;28;20200;-82
2022/09/23 04:35:52;;;;;;;0.80;0.80;;;12.90;97.00;;;;;;5030780;28;20193;-82
2022/09/23 04:38:20;;;;;;;1.57;1.10;;;12.90;97.20;;;;;;5032772;28;20576;-83
2022/09/23 04:40:51;;;;;;;2.57;0.90;;;12.90;96.90;;;;;;5032359;28;20219;-81
2022/09/23 04:43:22;;;;;;;1.30;1.00;;;12.90;97.00;;;;;;5027801;28;20672;-81
2022/09/23 04:45:58;;;;;;;1.20;1.10;;;12.90;97.60;;;;;;5032677;28;20199;-83
2022/09/23 04:48:25;;;;;;;1.20;1.10;;;12.40;96.80;;;;;;5027630;28;20207;-82
2022/09/23 04:50:52;;;;;;;1.97;1.60;;;12.90;97.10;;;;;;5034627;28;20206;-82
2022/09/23 04:53:20;;;;;;;1.33;1.20;;;12.90;97.10;;;;;;5030324;28;20199;-82
2022/09/23 04:55:50;;;;;;;1.00;1.00;;;12.90;97.10;;;;;;5032823;28;20202;-83
2022/09/23 04:58:17;;;;;;;1.43;1.30;;;12.90;97.20;;;;;;5032291;28;20203;-81
2022/09/23 05:00:47;;;;;;;1.23;1.00;;;12.90;97.20;;;;;;5027520;28;20249;-81
2022/09/23 05:03:14;;;;;;;1.60;1.40;;;12.90;97.20;;;;;;5032857;28;20191;-82
2022/09/23 05:05:44;;;;;;;1.33;1.23;;;12.90;97.20;;;;;;5045352;28;20229;-82
2022/09/23 05:08:12;;;;;;;1.10;1.00;;;13.00;97.30;;;;;;5052171;28;20207;-83
2022/09/23 05:10:39;;;;;;;1.13;1.03;;;13.00;97.50;;;;;;5042422;28;20203;-81
2022/09/23 05:13:07;;;;;;;1.53;1.00;;;13.00;97.20;;;;;;5036254;28;20874;-81
2022/09/23 05:15:35;;;;;;;1.33;1.23;;;13.00;97.30;;;;;;5036771;28;20192;-82
2022/09/23 05:18:02;;;;;;;0.90;0.90;;;13.00;97.30;;;;;;5031074;28;20659;-81
2022/09/23 05:20:29;;;;;;;1.40;1.30;;;13.00;97.30;;;;;;5033721;28;20212;-82
2022/09/23 05:22:59;;;;;;;2.03;1.40;;;13.10;97.30;;;;;;5033557;28;20207;-81
2022/09/23 05:25:26;;;;;;;1.30;1.20;;;13.10;97.30;;;;;;5034554;28;20204;-81
2022/09/23 05:27:53;;;;;;;1.30;1.17;;;13.10;97.30;;;;;;5034843;28;20663;-81
2022/09/23 05:30:22;;;;;;;0.83;0.83;;;13.10;97.30;;;;;;5037563;28;20254;-82
2022/09/23 05:32:51;;;;;;;2.00;1.20;;;13.00;97.30;;;;;;5032167;28;20231;-82
2022/09/23 05:35:18;;;;;;;1.50;1.40;;;13.10;97.50;;;;;;5031510;28;20196;-82
2022/09/23 05:37:45;;;;;;;1.27;1.17;;;13.20;97.40;;;;;;5030073;28;20199;-82
2022/09/23 05:40:16;;;;;;;1.30;1.20;;;13.20;97.40;;;;;;5034570;28;20207;-83
2022/09/23 05:42:45;;;;;;;1.83;1.63;;;13.20;97.50;;;;;;5038976;28;20195;-83
2022/09/23 05:45:14;;;;;;;2.43;1.47;;;13.20;97.80;;;;;;5027902;28;20199;-83
2022/09/23 05:47:43;;;;;;;1.60;1.50;;;12.30;97.20;;;;;;5028435;28;20604;-82
2022/09/23 05:50:11;;;;;;;1.43;1.33;;;13.20;97.70;;;;;;5041574;28;20193;-83
2022/09/23 05:52:38;;;;;;;1.50;1.40;;;13.20;97.70;;;;;;5027980;28;20190;-82
2022/09/23 05:55:06;;;;;;;4.10;1.50;;;13.20;97.60;;;;;;5024369;28;20193;-83
2022/09/23 05:57:33;;;;;;;1.00;1.00;;;12.40;97.20;;;;;;5023729;28;20425;-83
2022/09/23 06:00:01;;;;;;;1.20;1.10;;;13.20;97.70;;;;;;5026734;28;20206;-83
2022/09/23 06:02:28;;;;;;;1.00;1.00;;;13.30;97.90;;;;;;5030768;28;20208;-83
2022/09/23 06:04:57;;;;;;;2.50;1.40;;;13.30;97.80;;;;;;5030474;28;20230;-82
2022/09/23 06:07:26;;;;;;;1.70;1.10;;;13.30;97.70;;;;;;5031515;28;20222;-82
2022/09/23 06:09:53;;;;;;;1.10;1.00;;;12.80;97.50;;;;;;5033789;28;20199;-82
2022/09/23 06:12:21;;;;;;;1.30;1.20;;;13.40;97.90;;;;;;5029403;28;20293;-83
2022/09/23 06:17:49;;;;;;;2.20;1.20;;;13.40;97.80;;;;;;5026239;28;20631;-83
2022/09/23 06:20:18;;;;;;;1.13;1.07;;;13.40;97.90;;;;;;5030267;28;20221;-83
2022/09/23 06:22:45;;;;;;;1.20;1.00;;;13.50;98.00;;;;;;5031456;28;20185;-82
2022/09/23 06:25:12;;;;;;;1.73;1.03;;;13.50;97.90;;;;;;5031559;28;20223;-82
2022/09/23 06:27:40;;;;;;;1.23;1.13;;;13.50;98.00;;;;;;5036297;28;20196;-82
2022/09/23 06:30:08;;;;;;;1.13;1.10;;;13.50;98.10;;;;;;5038613;28;20187;-83
2022/09/23 06:32:35;;;;;;;3.50;1.10;;;13.60;97.90;;;;;;5044864;28;20205;-82
2022/09/23 06:35:02;;;;;;;1.23;1.00;;;13.60;97.90;;;;;;5038965;28;20205;-82
2022/09/23 06:37:32;;;;;;;1.37;1.27;;;13.60;97.90;;;;;;5039426;28;20223;-82
2022/09/23 06:40:00;;;;;;;1.33;1.03;;;13.70;98.00;;;;;;5031106;28;20201;-82
2022/09/23 06:42:27;;;;;;;1.60;1.20;;;13.70;98.00;;;;;;5036519;28;20375;-82
2022/09/23 06:44:54;;;;;;;1.00;1.00;;;13.80;98.10;;;;;;5034308;28;20214;-84
2022/09/23 06:47:21;;;;;;;1.60;1.10;;;13.80;98.00;;;;;;5036129;28;20231;-83
2022/09/23 06:49:50;;;;;;;0.90;0.90;;;13.90;98.30;;;;;;5034516;28;20205;-82
2022/09/23 06:52:19;;;;;;;3.17;0.90;;;13.90;98.20;;;;;;5030772;28;20526;-82
2022/09/23 06:54:48;;;;;;;1.20;1.10;;;14.00;98.30;;;;;;5030928;28;20555;-83
2022/09/23 06:57:15;;;;;;;0.90;0.90;;;14.10;98.10;;;;;;5037079;28;20306;-83
2022/09/23 06:59:42;;;;;;;0.83;0.83;;;14.10;98.10;;;;;;5025965;28;20321;-83
2022/09/23 07:02:10;;;;;;;2.87;1.10;;;14.10;98.10;;;;;;5028157;28;20212;-83
2022/09/23 07:04:37;;;;;;;1.20;1.00;;;14.20;98.20;;;;;;5034116;28;20197;-83
2022/09/23 07:07:28;;;;;;;2.83;1.10;;;14.30;98.30;;;;;;5027397;28;20205;-83
2022/09/23 07:10:00;;;;;;;1.83;1.10;;;14.30;98.20;;;;;;5035472;28;20202;-84
2022/09/23 07:12:27;;;;;;;1.43;1.33;;;14.40;98.10;;;;;;5033064;28;20229;-84
2022/09/23 07:14:56;;;;;;;1.30;1.20;;;14.40;98.20;;;;;;5027231;28;20258;-81
2022/09/23 07:17:24;;;;;;;2.60;1.67;;;14.50;98.20;;;;;;5026050;28;20257;-83
2022/09/23 07:19:54;;;;;;;1.20;1.20;;;14.50;98.20;;;;;;5031073;28;20209;-82
2022/09/23 07:22:23;;;;;;;1.30;1.20;;;14.60;98.20;;;;;;5028628;28;20233;-82
2022/09/23 07:24:58;;;;;;;1.17;1.07;;;14.60;98.20;;;;;;5031858;28;20598;-83
2022/09/23 07:27:33;;;;;;;1.40;1.10;;;14.70;98.10;;;;;;5032408;28;20210;-83
2022/09/23 07:30:00;;;;;;;1.40;0.93;;;15.20;98.40;;;;;;5035680;28;20283;-83
2022/09/23 07:35:48;;;;;;;1.13;1.13;;;14.90;97.90;;;;;;4973657;28;20325;-84
2022/09/23 07:38:18;;;;;;;2.53;1.10;;;14.90;97.90;;;;;;5036528;28;20205;-83
2022/09/23 07:40:45;;;;;;;0.80;0.80;;;15.00;97.90;;;;;;5032053;28;20225;-82
2022/09/23 07:43:14;;;;;;;1.00;1.00;;;15.00;98.10;;;;;;5031479;28;20240;-82
2022/09/23 07:45:42;;;;;;;0.93;0.90;;;14.30;97.40;;;;;;5034980;28;20225;-83
2022/09/23 07:48:11;;;;;;;1.93;0.80;;;15.10;98.00;;;;;;5028953;28;20213;-83
2022/09/23 07:50:39;;;;;;;0.90;0.90;;;15.20;98.00;;;;;;5030351;28;20198;-83
2022/09/23 07:53:09;;;;;;;1.00;0.93;;;15.00;97.90;;;;;;5025494;28;20202;-84
2022/09/23 07:55:36;;;;;;;1.07;1.07;;;15.70;97.90;;;;;;5029230;28;20217;-83
2022/09/23 07:58:04;;;;;;;1.10;1.00;;;15.90;97.60;;;;;;5033470;28;20199;-82
2022/09/23 08:00:35;;;;;;;1.20;1.10;;;16.60;97.50;;;;;;5028801;28;20203;-85
2022/09/23 08:03:02;;;;;;;1.67;1.10;;;16.00;97.30;;;;;;5029337;28;20245;-85
2022/09/23 08:05:30;;;;;;;1.60;1.23;;;16.30;97.40;;;;;;5033061;28;20253;-84
2022/09/23 08:07:57;;;;;;;1.10;1.00;;;16.70;97.40;;;;;;5036508;28;20204;-82
2022/09/23 08:10:24;;;;;;;1.10;1.10;;;17.20;96.90;;;;;;5031323;28;20656;-82
2022/09/23 08:12:51;;;;;;;0.90;0.90;;;17.70;96.30;;;;;;5026573;28;20244;-84
2022/09/23 08:15:19;;;;;;;0.80;0.80;;;18.20;96.00;;;;;;5026044;28;20233;-84
2022/09/23 08:17:47;;;;;;;1.13;1.03;;;18.40;94.90;;;;;;5030128;28;20199;-84
2022/09/23 08:23:02;;;;;;;1.10;1.00;;;18.10;94.20;;;;;;5024162;28;20676;-82
2022/09/23 08:25:30;;;;;;;0.70;0.70;;;17.80;94.10;;;;;;5028623;28;20206;-83
2022/09/23 08:27:58;;;;;;;0.83;0.83;;;17.80;94.20;;;;;;5029579;28;20219;-82
2022/09/23 08:30:25;;;;;;;0.70;0.70;;;17.70;94.30;;;;;;5027286;28;20207;-82
2022/09/23 08:32:56;;;;;;;0.50;0.50;;;17.50;94.40;;;;;;5028493;28;20653;-83
2022/09/23 08:35:25;;;;;;;0.80;0.80;;;17.40;94.40;;;;;;5033854;28;20208;-83
2022/09/23 08:37:52;;;;;;;0.80;0.80;;;17.30;94.30;;;;;;5032433;28;20233;-81
2022/09/23 08:40:20;;;;;;;0.70;0.70;;;17.20;94.40;;;;;;5038309;28;20675;-82
2022/09/23 08:42:47;;;;;;;1.57;0.80;;;17.20;94.30;;;;;;5030645;28;20644;-83
2022/09/23 08:45:19;;;;;;;0.85;0.85;;;17.20;94.20;;;;;;5039622;28;20206;-83
2022/09/23 08:47:53;;;;;;;0.70;0.70;;;17.10;94.20;;;;;;5036734;28;20228;-83
2022/09/23 08:50:23;;;;;;;0.70;0.70;;;17.00;94.20;;;;;;5035383;28;20629;-82
2022/09/23 08:52:54;;;;;;;0.60;0.60;;;17.00;94.10;;;;;;5033998;28;20574;-83
2022/09/23 08:55:29;;;;;;;0.53;0.53;;;17.00;94.10;;;;;;5027631;28;20199;-82
2022/09/23 08:58:08;;;;;;;0.50;0.50;;;17.00;94.20;;;;;;5033291;28;20200;-81
2022/09/23 09:00:45;;;;;;;0.50;0.50;;;16.90;93.90;;;;;;5031577;28;20246;-82
2022/09/23 09:03:21;;;;;;;0.60;0.60;;;16.90;93.80;;;;;;5026833;28;20192;-84
2022/09/23 09:05:55;;;;;;;0.57;0.43;;;16.80;93.30;;;;;;5029892;28;20202;-81
2022/09/23 09:08:25;;;;;;;0.57;0.57;;;16.80;93.20;;;;;;5036389;28;20191;-81
2022/09/23 09:10:56;;;;;;;0.50;0.50;;;16.80;92.90;;;;;;5029323;28;20218;-81
2022/09/23 09:13:31;;;;;;;0.53;0.53;;;16.80;93.00;;;;;;5035965;28;20338;-83
2022/09/23 09:16:18;;;;;;;0.60;0.60;;;16.80;92.60;;;;;;5035900;28;20196;-82
2022/09/23 09:18:53;;;;;;;0.50;0.50;;;16.80;92.50;;;;;;5034213;28;20289;-83
2022/09/23 09:21:28;;;;;;;0.40;0.40;;;16.90;92.60;;;;;;5037391;28;20637;-83
2022/09/23 09:23:59;;;;;;;0.50;0.50;;;16.90;92.30;;;;;;5030307;28;20309;-81
2022/09/23 09:26:29;;;;;;;1.03;0.90;;;17.00;92.20;;;;;;5032605;28;20681;-81
2022/09/23 09:29:09;;;;;;;0.73;0.73;;;17.10;91.70;;;;;;5028562;28;20637;-83
2022/09/23 09:31:41;;;;;;;1.60;0.70;;;17.20;91.80;;;;;;5031890;28;20207;-82
2022/09/23 09:34:15;;;;;;;0.50;0.50;;;17.20;91.70;;;;;;5028953;28;20678;-82
2022/09/23 09:36:51;;;;;;;0.60;0.60;;;17.40;91.10;;;;;;5028377;28;20212;-82
2022/09/23 09:39:18;;;;;;;0.80;0.60;;;17.20;90.70;;;;;;5033258;28;20187;-81
2022/09/23 09:41:59;;;;;;;0.40;0.40;;;17.30;90.40;;;;;;5034204;28;20547;-81
2022/09/23 09:44:33;;;;;;;0.40;0.40;;;17.30;90.20;;;;;;5033304;28;20211;-82
2022/09/23 09:47:16;;;;;;;0.77;0.50;;;17.40;90.00;;;;;;5028945;28;20254;-82
2022/09/23 09:50:21;;;;;;;0.50;0.50;;;17.40;89.30;;;;;;5031232;28;20198;-83
2022/09/23 09:53:15;;;;;;;0.60;0.60;;;17.30;89.50;;;;;;5032112;28;20200;-84
2022/09/23 09:55:44;;;;;;;0.50;0.50;;;17.30;89.80;;;;;;5035014;28;20190;-84
2022/09/23 09:58:16;;;;;;;0.50;0.50;;;17.20;90.30;;;;;;5036016;28;20199;-83
2022/09/23 10:00:49;;;;;;;0.50;0.50;;;17.10;90.20;;;;;;5032295;28;20648;-82
2022/09/23 10:03:34;;;;;;;0.70;0.70;;;17.10;90.50;;;;;;5026929;28;20606;-82
2022/09/23 10:06:14;;;;;;;0.50;0.50;;;17.00;90.50;;;;;;5035908;28;20218;-82
2022/09/23 10:08:51;;;;;;;0.70;0.70;;;17.00;90.60;;;;;;5027601;28;20200;-81
2022/09/23 10:11:19;;;;;;;1.03;0.90;;;17.00;90.70;;;;;;5029465;28;20281;-81
2022/09/23 10:14:05;;;;;;;0.80;0.70;;;17.00;91.10;;;;;;5030246;28;20301;-81
2022/09/23 10:16:36;;;;;;;0.60;0.60;;;17.00;91.10;;;;;;5033615;28;20212;-82
2022/09/23 10:19:14;;;;;;;0.73;0.73;;;16.90;91.30;;;;;;5035940;28;20206;-83
2022/09/23 10:21:41;;;;;;;0.50;0.50;;;16.90;91.00;;;;;;5032716;28;20232;-82
2022/09/23 10:24:24;;;;;;;0.30;0.30;;;16.90;90.80;;;;;;5032107;28;20206;-84
2022/09/23 10:26:57;;;;;;;0.43;0.43;;;16.90;90.80;;;;;;5039118;28;20280;-82
2022/09/23 10:29:29;;;;;;;0.40;0.40;;;17.00;90.90;;;;;;5028074;28;20208;-83
2022/09/23 10:32:19;;;;;;;0.43;0.43;;;17.00;91.10;;;;;;5028150;28;20210;-83
2022/09/23 10:34:51;;;;;;;0.50;0.50;;;17.40;91.20;;;;;;5034355;28;20203;-83
2022/09/23 10:37:39;;;;;;;0.37;0.37;;;17.10;91.30;;;;;;5029210;28;20225;-84
2022/09/23 10:46:40;;;;;;;0.40;0.40;;;17.20;91.10;;;;;;5028955;28;20189;-83
2022/09/23 10:49:37;;;;;;;0.57;0.57;;;17.20;91.10;;;;;;5031866;28;20210;-83
2022/09/23 10:52:26;;;;;;;0.47;0.47;;;17.30;91.00;;;;;;5037282;28;20701;-82
2022/09/23 10:55:05;;;;;;;0.60;0.60;;;17.30;90.90;;;;;;5023337;28;20205;-82
2022/09/23 10:57:56;;;;;;;0.88;0.55;;;17.30;90.70;;;;;;5028632;28;20253;-92
2022/09/23 11:00:35;;;;;;;0.40;0.40;;;17.40;90.70;;;;;;5028315;28;20201;-83
2022/09/23 11:03:30;;;;;;;0.67;0.50;;;17.50;90.70;;;;;;5034919;28;20650;-82
2022/09/23 11:06:11;;;;;;;0.47;0.47;;;17.60;90.70;;;;;;5029866;28;20256;-83
2022/09/23 11:08:58;;;;;;;0.50;0.50;;;18.30;90.40;;;;;;5029168;28;20650;-83
2022/09/23 11:11:37;;;;;;;1.23;0.50;;;19.40;89.80;;;;;;5025918;28;20239;-74
2022/09/23 11:14:20;;;;;;;0.47;0.47;;;20.00;87.90;;;;;;5026831;28;20611;-74
2022/09/23 11:17:13;;;;;;;0.50;0.50;;;20.10;86.80;;;;;;5031024;28;20201;-73
2022/09/23 11:20:26;;;;;;;0.45;0.45;;;20.00;87.10;;;;;;5025107;28;20188;-74
2022/09/23 11:23:25;;;;;;;0.38;0.38;;;19.60;87.20;;;;;;5002670;28;20352;-71
2022/09/23 11:25:59;;;;;;;0.43;0.43;;;19.40;87.30;;;;;;5008934;28;20595;-74
2022/09/23 11:28:51;;;;;;;0.40;0.40;;;19.20;87.30;;;;;;5030101;28;20201;-73
2022/09/23 11:31:32;;;;;;;0.47;0.47;;;19.10;87.60;;;;;;5033893;28;20190;-73
2022/09/23 11:34:17;;;;;;;0.40;0.40;;;19.00;87.70;;;;;;5028563;28;20280;-73
2022/09/23 11:36:50;;;;;;;0.50;0.50;;;18.90;87.60;;;;;;5038973;28;20251;-73
2022/09/23 11:39:24;;;;;;;0.40;0.40;;;19.00;87.60;;;;;;5031925;28;20218;-73
2022/09/23 11:41:55;;;;;;;1.45;0.80;;;19.30;87.50;;;;;;5026907;28;20379;-74
2022/09/23 11:44:44;;;;;;;0.68;0.68;;;20.40;86.20;;;;;;5028379;28;20210;-73
2022/09/23 11:47:21;;;;;;;0.50;0.50;;;20.90;84.30;;;;;;5026423;28;20747;-74
2022/09/23 11:50:00;;;;;;;0.80;0.50;;;20.70;83.70;;;;;;5027998;28;20206;-73
2022/09/23 11:52:32;;;;;;;1.13;0.75;;;20.40;84.30;;;;;;5033275;28;20244;-73
2022/09/23 11:55:06;;;;;;;0.55;0.50;;;20.10;83.70;;;;;;5026188;28;20202;-74
2022/09/23 11:57:42;;;;;;;0.50;0.50;;;19.80;83.70;;;;;;5026664;28;20182;-74
2022/09/23 12:00:21;;;;;;;0.60;0.60;;;19.60;83.30;;;;;;5025953;28;20196;-74
2022/09/23 12:03:01;;;;;;;0.50;0.50;;;19.40;83.60;;;;;;5034480;28;20206;-73
2022/09/23 12:05:31;;;;;;;0.60;0.60;;;19.20;83.80;;;;;;5041405;28;20201;-73
2022/09/23 12:08:05;;;;;;;0.52;0.52;;;19.10;83.80;;;;;;5036609;28;20198;-73
2022/09/23 12:10:43;;;;;;;0.95;0.52;;;19.00;83.90;;;;;;5026452;28;20206;-73
2022/09/23 12:13:18;;;;;;;0.63;0.57;;;18.90;84.40;;;;;;5028242;28;20222;-74
2022/09/23 12:15:59;;;;;;;0.50;0.50;;;18.80;84.50;;;;;;5029270;28;20240;-73
2022/09/23 12:18:46;;;;;;;0.40;0.40;;;18.70;85.30;;;;;;5034698;28;20208;-74
2022/09/23 12:21:28;;;;;;;0.90;0.90;;;18.60;84.60;;;;;;5027998;28;20559;-73
2022/09/23 12:24:14;;;;;;;0.73;0.73;;;18.50;84.50;;;;;;5027776;28;20215;-73
2022/09/23 12:26:43;;;;;;;1.85;0.80;;;18.50;84.80;;;;;;5029875;28;20198;-73
2022/09/23 12:29:15;;;;;;;0.50;0.50;;;18.50;84.60;;;;;;5034501;28;20198;-74
2022/09/23 12:31:44;;;;;;;0.50;0.50;;;19.20;84.80;;;;;;5031084;28;20243;-74
2022/09/23 12:34:28;;;;;;;0.50;0.50;;;19.70;83.60;;;;;;5026152;28;20847;-73
2022/09/23 12:37:03;;;;;;;0.88;0.60;;;20.10;82.40;;;;;;5031756;28;20248;-74
2022/09/23 12:39:33;;;;;;;0.65;0.65;;;21.50;81.60;;;;;;5034004;28;20216;-72
2022/09/23 12:42:02;;;;;;;0.55;0.55;;;23.50;78.70;;;;;;5028972;28;20522;-72
2022/09/23 12:44:35;;;;;;;0.50;0.50;;;25.40;74.70;;;;;;5025118;28;20285;-72
2022/09/23 12:47:30;;;;;;;0.50;0.50;;;26.70;69.90;;;;;;5029415;28;20201;-74
2022/09/23 12:50:00;;;;;;;0.50;0.50;;;27.70;66.50;;;;;;5021308;28;20217;-74
2022/09/23 12:52:29;;;;;;;0.68;0.68;;;28.40;63.10;;;;;;5028416;28;20194;-74
2022/09/23 12:54:58;;;;;;;0.50;0.50;;;29.20;59.40;;;;;;5032963;28;20202;-74
2022/09/23 12:57:43;;;;;;;0.40;0.40;;;30.00;57.70;;;;;;5026697;28;20233;-73
2022/09/23 13:00:25;;;;;;;0.57;0.57;;;29.90;56.20;;;;;;5029982;28;20198;-74
2022/09/23 13:08:35;;;;;;;0.60;0.60;;;28.30;54.50;;;;;;5025827;28;20187;-73
2022/09/23 13:11:05;;;;;;;1.65;0.93;;;27.40;53.50;;;;;;5028458;28;20191;-73
2022/09/23 13:13:37;;;;;;;0.47;0.47;;;26.10;53.40;;;;;;5022021;28;20253;-73
2022/09/23 13:16:14;;;;;;;1.17;0.50;;;25.10;55.20;;;;;;5027294;28;20194;-72
2022/09/23 13:18:59;;;;;;;0.47;0.47;;;24.40;56.30;;;;;;5023371;28;20199;-74
2022/09/23 13:22:06;;;;;;;0.60;0.60;;;23.70;57.00;;;;;;5024720;28;20289;-74
2022/09/23 13:24:42;;;;;;;0.35;0.35;;;23.20;57.60;;;;;;5036520;28;20194;-73
2022/09/23 13:27:30;;;;;;;0.70;0.50;;;22.70;58.60;;;;;;5033847;28;20196;-73
2022/09/23 13:30:00;;;;;;;1.45;0.50;;;22.40;59.30;;;;;;5033643;28;20190;-73
2022/09/23 13:32:31;;;;;;;0.50;0.50;;;22.00;59.20;;;;;;5030400;28;20203;-73
2022/09/23 13:35:03;;;;;;;0.50;0.50;;;21.80;59.90;;;;;;5046138;28;20529;-75
2022/09/23 13:37:41;;;;;;;0.77;0.77;;;21.50;60.70;;;;;;5031189;28;20178;-74
2022/09/23 13:40:19;;;;;;;0.80;0.80;;;21.20;61.40;;;;;;5039487;28;20197;-74
2022/09/23 13:42:51;;;;;;;3.50;1.10;;;21.00;62.20;;;;;;5032169;28;20239;-74